sensor_id;sensor_type;location;lat;lon;timestamp;pressure;altitude;pressure_sealevel;temperature;humidity
26823;BME280;14852;51.910;8.878;2023-04-06T00:02:06;100070.53;;;3.46;41.36
26823;BME280;14852;51.910;8.878;2023-04-06T00:04:31;100064.66;;;3.40;41.45
26823;BME280;14852;51.910;8.878;2023-04-06T00:06:57;100063.88;;;3.35;41.23
26823;BME280;14852;51.910;8.878;2023-04-06T00:09:23;100057.13;;;3.31;41.61
26823;BME280;14852;51.910;8.878;2023-04-06T00:11:49;100053.72;;;3.30;41.40
26823;BME280;14852;51.910;8.878;2023-04-06T00:14:15;100059.75;;;3.27;41.83
26823;BME280;14852;51.910;8.878;2023-04-06T00:16:42;100057.22;;;3.24;41.84
26823;BME280;14852;51.910;8.878;2023-04-06T00:19:08;100047.91;;;3.20;41.81
26823;BME280;14852;51.910;8.878;2023-04-06T00:21:34;100052.25;;;3.17;41.70
26823;BME280;14852;51.910;8.878;2023-04-06T00:24:00;100044.59;;;3.14;41.68
26823;BME280;14852;51.910;8.878;2023-04-06T00:26:25;100044.69;;;3.09;42.15
26823;BME280;14852;51.910;8.878;2023-04-06T00:28:53;100046.50;;;3.03;42.29
26823;BME280;14852;51.910;8.878;2023-04-06T00:31:19;100043.19;;;2.96;42.50
26823;BME280;14852;51.910;8.878;2023-04-06T00:33:45;100037.25;;;2.92;42.25
26823;BME280;14852;51.910;8.878;2023-04-06T00:36:11;100041.53;;;2.92;42.33
26823;BME280;14852;51.910;8.878;2023-04-06T00:38:37;100040.69;;;2.91;42.48
26823;BME280;14852;51.910;8.878;2023-04-06T00:41:04;100033.94;;;2.87;42.68
26823;BME280;14852;51.910;8.878;2023-04-06T00:43:30;100028.88;;;2.81;42.63
26823;BME280;14852;51.910;8.878;2023-04-06T00:45:56;100032.44;;;2.74;43.01
26823;BME280;14852;51.910;8.878;2023-04-06T00:48:22;100027.31;;;2.73;42.86
26823;BME280;14852;51.910;8.878;2023-04-06T00:50:48;100022.94;;;2.79;43.01
26823;BME280;14852;51.910;8.878;2023-04-06T00:53:14;100027.97;;;2.85;43.15
26823;BME280;14852;51.910;8.878;2023-04-06T00:55:40;100017.69;;;2.87;42.87
26823;BME280;14852;51.910;8.878;2023-04-06T00:58:06;100018.53;;;2.87;42.82
26823;BME280;14852;51.910;8.878;2023-04-06T01:00:40;100014.19;;;2.91;42.95
26823;BME280;14852;51.910;8.878;2023-04-06T01:03:08;100008.22;;;2.89;42.92
26823;BME280;14852;51.910;8.878;2023-04-06T01:05:39;100011.72;;;2.85;42.91
26823;BME280;14852;51.910;8.878;2023-04-06T01:08:10;100004.09;;;2.80;43.23
26823;BME280;14852;51.910;8.878;2023-04-06T01:10:36;99999.91;;;2.76;43.36
26823;BME280;14852;51.910;8.878;2023-04-06T01:13:12;100000.75;;;2.77;43.23
26823;BME280;14852;51.910;8.878;2023-04-06T01:15:46;99998.94;;;2.82;43.27
26823;BME280;14852;51.910;8.878;2023-04-06T01:18:16;99988.66;;;2.83;43.27
26823;BME280;14852;51.910;8.878;2023-04-06T01:20:49;99982.63;;;2.86;42.97
26823;BME280;14852;51.910;8.878;2023-04-06T01:23:16;99983.41;;;2.89;43.25
26823;BME280;14852;51.910;8.878;2023-04-06T01:25:46;99984.22;;;2.91;43.32
26823;BME280;14852;51.910;8.878;2023-04-06T01:28:12;99976.53;;;2.91;43.04
26823;BME280;14852;51.910;8.878;2023-04-06T01:31:01;99981.66;;;2.91;43.22
26823;BME280;14852;51.910;8.878;2023-04-06T01:33:42;99981.69;;;2.90;43.01
26823;BME280;14852;51.910;8.878;2023-04-06T01:36:11;99979.13;;;2.88;43.03
26823;BME280;14852;51.910;8.878;2023-04-06T01:38:38;99979.19;;;2.87;43.48
26823;BME280;14852;51.910;8.878;2023-04-06T01:41:04;99971.53;;;2.85;43.50
26823;BME280;14852;51.910;8.878;2023-04-06T01:43:39;99969.81;;;2.84;43.22
26823;BME280;14852;51.910;8.878;2023-04-06T01:46:08;99972.38;;;2.84;43.43
26823;BME280;14852;51.910;8.878;2023-04-06T01:48:38;99972.38;;;2.84;43.51
26823;BME280;14852;51.910;8.878;2023-04-06T01:51:13;99963.03;;;2.82;43.28
26823;BME280;14852;51.910;8.878;2023-04-06T01:53:47;99968.19;;;2.79;43.45
26823;BME280;14852;51.910;8.878;2023-04-06T01:56:14;99967.44;;;2.74;43.62
26823;BME280;14852;51.910;8.878;2023-04-06T01:58:46;99969.22;;;2.70;43.44
26823;BME280;14852;51.910;8.878;2023-04-06T02:01:15;99973.50;;;2.70;43.72
26823;BME280;14852;51.910;8.878;2023-04-06T02:03:51;99964.06;;;2.70;43.70
26823;BME280;14852;51.910;8.878;2023-04-06T02:06:17;99965.78;;;2.70;43.69
26823;BME280;14852;51.910;8.878;2023-04-06T02:08:43;99967.47;;;2.72;43.86
26823;BME280;14852;51.910;8.878;2023-04-06T02:11:09;99966.56;;;2.75;43.85
26823;BME280;14852;51.910;8.878;2023-04-06T02:13:48;99965.72;;;2.76;43.76
26823;BME280;14852;51.910;8.878;2023-04-06T02:16:15;99970.84;;;2.76;43.74
26823;BME280;14852;51.910;8.878;2023-04-06T02:18:42;99967.41;;;2.77;43.59
26823;BME280;14852;51.910;8.878;2023-04-06T02:21:08;99955.38;;;2.77;43.52
26823;BME280;14852;51.910;8.878;2023-04-06T02:23:34;99960.47;;;2.80;43.61
26823;BME280;14852;51.910;8.878;2023-04-06T02:26:00;99962.16;;;2.83;43.57
26823;BME280;14852;51.910;8.878;2023-04-06T02:28:26;99965.53;;;2.85;43.69
26823;BME280;14852;51.910;8.878;2023-04-06T02:30:51;99958.72;;;2.84;43.82
26823;BME280;14852;51.910;8.878;2023-04-06T02:33:18;99958.72;;;2.84;43.78
26823;BME280;14852;51.910;8.878;2023-04-06T02:35:46;99968.16;;;2.82;43.67
26823;BME280;14852;51.910;8.878;2023-04-06T02:38:12;99963.88;;;2.81;43.96
26823;BME280;14852;51.910;8.878;2023-04-06T02:40:37;99959.66;;;2.78;43.83
26823;BME280;14852;51.910;8.878;2023-04-06T02:43:20;99956.22;;;2.79;43.80
26823;BME280;14852;51.910;8.878;2023-04-06T02:45:46;99952.78;;;2.80;43.92
26823;BME280;14852;51.910;8.878;2023-04-06T02:48:13;99957.88;;;2.82;43.84
26823;BME280;14852;51.910;8.878;2023-04-06T02:50:39;99957.88;;;2.82;43.83
26823;BME280;14852;51.910;8.878;2023-04-06T02:53:06;99954.44;;;2.84;43.76
26823;BME280;14852;51.910;8.878;2023-04-06T02:55:33;99958.72;;;2.84;44.09
26823;BME280;14852;51.910;8.878;2023-04-06T02:57:59;99955.28;;;2.85;43.79
26823;BME280;14852;51.910;8.878;2023-04-06T03:00:31;99951.88;;;2.84;43.98
26823;BME280;14852;51.910;8.878;2023-04-06T03:02:56;99951.91;;;2.81;44.11
26823;BME280;14852;51.910;8.878;2023-04-06T03:05:24;99958.72;;;2.84;44.07
26823;BME280;14852;51.910;8.878;2023-04-06T03:07:49;99953.59;;;2.84;44.33
26823;BME280;14852;51.910;8.878;2023-04-06T03:10:28;99954.44;;;2.84;44.07
26823;BME280;14852;51.910;8.878;2023-04-06T03:12:54;99955.31;;;2.82;43.90
26823;BME280;14852;51.910;8.878;2023-04-06T03:15:29;99954.44;;;2.83;44.00
26823;BME280;14852;51.910;8.878;2023-04-06T03:18:06;99945.94;;;2.81;43.96
26823;BME280;14852;51.910;8.878;2023-04-06T03:20:40;99951.91;;;2.81;44.11
26823;BME280;14852;51.910;8.878;2023-04-06T03:23:06;99950.22;;;2.80;44.10
26823;BME280;14852;51.910;8.878;2023-04-06T03:25:36;99951.91;;;2.81;44.32
26823;BME280;14852;51.910;8.878;2023-04-06T03:28:05;99951.94;;;2.80;44.23
26823;BME280;14852;51.910;8.878;2023-04-06T03:30:35;99946.94;;;2.72;44.15
26823;BME280;14852;51.910;8.878;2023-04-06T03:33:02;99943.59;;;2.67;44.24
26823;BME280;14852;51.910;8.878;2023-04-06T03:35:31;99947.97;;;2.62;44.63
26823;BME280;14852;51.910;8.878;2023-04-06T03:37:57;99951.44;;;2.60;44.60
26823;BME280;14852;51.910;8.878;2023-04-06T03:40:24;99948.06;;;2.56;44.75
26823;BME280;14852;51.910;8.878;2023-04-06T03:42:50;99950.72;;;2.51;44.67
26823;BME280;14852;51.910;8.878;2023-04-06T03:45:16;99950.78;;;2.48;44.72
26823;BME280;14852;51.910;8.878;2023-04-06T03:47:49;99942.28;;;2.43;44.76
26823;BME280;14852;51.910;8.878;2023-04-06T03:50:15;99948.28;;;2.42;44.73
26823;BME280;14852;51.910;8.878;2023-04-06T03:52:41;99945.81;;;2.39;44.91
26823;BME280;14852;51.910;8.878;2023-04-06T03:55:07;99950.91;;;2.41;44.68
26823;BME280;14852;51.910;8.878;2023-04-06T03:57:35;99947.50;;;2.39;44.97
26823;BME280;14852;51.910;8.878;2023-04-06T04:00:03;99943.28;;;2.36;45.01
26823;BME280;14852;51.910;8.878;2023-04-06T04:02:38;99947.53;;;2.37;45.00
26823;BME280;14852;51.910;8.878;2023-04-06T04:05:04;99950.94;;;2.38;45.16
26823;BME280;14852;51.910;8.878;2023-04-06T04:07:30;99950.94;;;2.39;45.17
26823;BME280;14852;51.910;8.878;2023-04-06T04:09:56;99953.53;;;2.36;45.21
26823;BME280;14852;51.910;8.878;2023-04-06T04:12:22;99951.88;;;2.32;44.98
26823;BME280;14852;51.910;8.878;2023-04-06T04:14:48;99950.25;;;2.28;45.19
26823;BME280;14852;51.910;8.878;2023-04-06T04:17:14;99948.59;;;2.24;45.39
26823;BME280;14852;51.910;8.878;2023-04-06T04:19:39;99951.19;;;2.21;45.14
26823;BME280;14852;51.910;8.878;2023-04-06T04:22:06;99949.50;;;2.20;45.44
26823;BME280;14852;51.910;8.878;2023-04-06T04:24:35;99952.13;;;2.18;45.52
26823;BME280;14852;51.910;8.878;2023-04-06T04:27:01;99953.00;;;2.16;45.42
26823;BME280;14852;51.910;8.878;2023-04-06T04:29:30;99951.31;;;2.13;45.55
26823;BME280;14852;51.910;8.878;2023-04-06T04:32:01;99953.06;;;2.11;45.45
26823;BME280;14852;51.910;8.878;2023-04-06T04:34:27;99950.53;;;2.08;45.69
26823;BME280;14852;51.910;8.878;2023-04-06T04:36:53;99948.03;;;2.07;45.70
26823;BME280;14852;51.910;8.878;2023-04-06T04:39:28;99957.44;;;2.06;45.64
26823;BME280;14852;51.910;8.878;2023-04-06T04:42:02;99950.53;;;2.08;45.58
26823;BME280;14852;51.910;8.878;2023-04-06T04:44:29;99953.03;;;2.13;45.82
26823;BME280;14852;51.910;8.878;2023-04-06T04:46:55;99948.72;;;2.16;45.68
26823;BME280;14852;51.910;8.878;2023-04-06T04:49:29;99953.75;;;2.21;45.66
26823;BME280;14852;51.910;8.878;2023-04-06T04:51:55;99959.69;;;2.26;45.42
26823;BME280;14852;51.910;8.878;2023-04-06T04:54:27;99959.56;;;2.32;45.43
26823;BME280;14852;51.910;8.878;2023-04-06T04:56:53;99957.75;;;2.40;45.57
26823;BME280;14852;51.910;8.878;2023-04-06T04:59:37;99961.88;;;2.49;45.35
26823;BME280;14852;51.910;8.878;2023-04-06T05:02:11;99962.56;;;2.59;45.37
26823;BME280;14852;51.910;8.878;2023-04-06T05:04:46;99958.16;;;2.67;45.36
26823;BME280;14852;51.910;8.878;2023-04-06T05:07:18;99958.88;;;2.75;45.44
26823;BME280;14852;51.910;8.878;2023-04-06T05:09:46;99961.31;;;2.81;45.12
26823;BME280;14852;51.910;8.878;2023-04-06T05:12:12;99956.13;;;2.85;45.20
26823;BME280;14852;51.910;8.878;2023-04-06T05:14:49;99961.09;;;2.93;45.13
26823;BME280;14852;51.910;8.878;2023-04-06T05:17:17;99959.34;;;2.97;45.08
26823;BME280;14852;51.910;8.878;2023-04-06T05:19:43;99960.91;;;3.04;45.03
26823;BME280;14852;51.910;8.878;2023-04-06T05:22:10;99951.41;;;3.09;45.03
26823;BME280;14852;51.910;8.878;2023-04-06T05:24:39;99949.66;;;3.11;45.27
26823;BME280;14852;51.910;8.878;2023-04-06T05:27:07;99957.28;;;3.14;45.16
26823;BME280;14852;51.910;8.878;2023-04-06T05:29:33;99952.91;;;3.20;45.15
26823;BME280;14852;51.910;8.878;2023-04-06T05:31:59;99949.13;;;3.37;44.88
26823;BME280;14852;51.910;8.878;2023-04-06T05:34:26;99951.63;;;3.81;44.29
26823;BME280;14852;51.910;8.878;2023-04-06T05:36:51;99947.88;;;4.33;43.04
26823;BME280;14852;51.910;8.878;2023-04-06T05:39:20;99940.19;;;4.31;43.09
26823;BME280;14852;51.910;8.878;2023-04-06T05:41:51;99949.00;;;4.21;43.29
26823;BME280;14852;51.910;8.878;2023-04-06T05:44:27;99946.59;;;4.15;43.89
26823;BME280;14852;51.910;8.878;2023-04-06T05:47:02;99948.34;;;4.13;43.82
26823;BME280;14852;51.910;8.878;2023-04-06T05:49:27;99949.16;;;4.15;44.31
26823;BME280;14852;51.910;8.878;2023-04-06T05:51:54;99943.00;;;4.21;44.17
26823;BME280;14852;51.910;8.878;2023-04-06T05:54:21;99939.47;;;4.26;43.90
26823;BME280;14852;51.910;8.878;2023-04-06T05:56:47;99938.34;;;4.38;43.80
26823;BME280;14852;51.910;8.878;2023-04-06T05:59:14;99939.06;;;4.42;44.18
26823;BME280;14852;51.910;8.878;2023-04-06T06:01:42;99933.88;;;4.45;44.36
26823;BME280;14852;51.910;8.878;2023-04-06T06:04:09;99929.34;;;4.54;44.18
26823;BME280;14852;51.910;8.878;2023-04-06T06:06:37;99939.28;;;4.68;44.05
26823;BME280;14852;51.910;8.878;2023-04-06T06:09:29;99922.56;;;4.84;43.72
26823;BME280;14852;51.910;8.878;2023-04-06T06:12:04;99925.59;;;4.98;44.07
26823;BME280;14852;51.910;8.878;2023-04-06T06:14:30;99928.34;;;5.23;43.86
26823;BME280;14852;51.910;8.878;2023-04-06T06:16:56;99933.31;;;6.17;42.23
26823;BME280;14852;51.910;8.878;2023-04-06T06:19:22;99918.97;;;7.80;39.91
26823;BME280;14852;51.910;8.878;2023-04-06T06:21:50;99911.56;;;9.36;37.26
26823;BME280;14852;51.910;8.878;2023-04-06T06:24:16;99912.69;;;10.59;35.67
26823;BME280;14852;51.910;8.878;2023-04-06T06:26:42;99895.59;;;11.69;34.06
26823;BME280;14852;51.910;8.878;2023-04-06T06:29:11;99908.03;;;12.57;33.05
26823;BME280;14852;51.910;8.878;2023-04-06T06:31:38;99904.75;;;13.12;32.42
26823;BME280;14852;51.910;8.878;2023-04-06T06:34:04;99899.63;;;13.38;32.43
26823;BME280;14852;51.910;8.878;2023-04-06T06:36:32;99899.06;;;14.03;31.73
26823;BME280;14852;51.910;8.878;2023-04-06T06:38:58;99904.38;;;14.68;31.06
26823;BME280;14852;51.910;8.878;2023-04-06T06:41:25;99898.44;;;15.29;30.83
26823;BME280;14852;51.910;8.878;2023-04-06T06:43:52;99897.63;;;15.78;29.84
26823;BME280;14852;51.910;8.878;2023-04-06T06:46:17;99896.06;;;16.23;29.61
26823;BME280;14852;51.910;8.878;2023-04-06T06:48:43;99895.84;;;16.50;29.51
26823;BME280;14852;51.910;8.878;2023-04-06T06:51:09;99889.16;;;16.92;29.18
26823;BME280;14852;51.910;8.878;2023-04-06T06:53:39;99893.69;;;17.12;28.29
26823;BME280;14852;51.910;8.878;2023-04-06T06:56:05;99894.09;;;17.30;28.43
26823;BME280;14852;51.910;8.878;2023-04-06T06:58:32;99889.38;;;17.56;28.08
26823;BME280;14852;51.910;8.878;2023-04-06T07:00:59;99890.63;;;17.29;28.61
26823;BME280;14852;51.910;8.878;2023-04-06T07:03:26;99892.16;;;17.43;28.50
26823;BME280;14852;51.910;8.878;2023-04-06T07:05:53;99889.88;;;17.72;28.51
26823;BME280;14852;51.910;8.878;2023-04-06T07:08:23;99884.94;;;18.33;27.54
26823;BME280;14852;51.910;8.878;2023-04-06T07:10:51;99882.38;;;18.84;27.22
26823;BME280;14852;51.910;8.878;2023-04-06T07:13:19;99881.22;;;18.98;27.23
26823;BME280;14852;51.910;8.878;2023-04-06T07:15:50;99878.88;;;18.74;26.92
26823;BME280;14852;51.910;8.878;2023-04-06T07:18:20;99875.53;;;19.23;26.48
26823;BME280;14852;51.910;8.878;2023-04-06T07:20:46;99871.94;;;19.64;26.50
26823;BME280;14852;51.910;8.878;2023-04-06T07:23:12;99872.72;;;20.24;26.03
26823;BME280;14852;51.910;8.878;2023-04-06T07:25:38;99879.25;;;20.58;25.71
26823;BME280;14852;51.910;8.878;2023-04-06T07:28:04;99866.03;;;20.68;25.36
26823;BME280;14852;51.910;8.878;2023-04-06T07:30:31;99867.41;;;20.72;25.17
26823;BME280;14852;51.910;8.878;2023-04-06T07:32:58;99873.66;;;20.71;25.08
26823;BME280;14852;51.910;8.878;2023-04-06T07:35:26;99878.28;;;20.59;24.59
26823;BME280;14852;51.910;8.878;2023-04-06T07:37:53;99871.31;;;20.68;24.88
26823;BME280;14852;51.910;8.878;2023-04-06T07:40:20;99867.41;;;20.72;24.35
26823;BME280;14852;51.910;8.878;2023-04-06T07:42:47;99875.50;;;20.51;24.72
26823;BME280;14852;51.910;8.878;2023-04-06T07:45:12;99872.19;;;20.40;25.10
26823;BME280;14852;51.910;8.878;2023-04-06T07:47:39;99870.22;;;20.61;24.48
26823;BME280;14852;51.910;8.878;2023-04-06T07:50:05;99865.78;;;20.52;24.15
26823;BME280;14852;51.910;8.878;2023-04-06T07:52:31;99857.06;;;20.88;24.41
26823;BME280;14852;51.910;8.878;2023-04-06T07:54:59;99861.22;;;21.38;23.55
26823;BME280;14852;51.910;8.878;2023-04-06T07:57:25;99861.88;;;21.49;23.43
26823;BME280;14852;51.910;8.878;2023-04-06T07:59:51;99851.41;;;21.30;23.63
26823;BME280;14852;51.910;8.878;2023-04-06T08:02:17;99851.91;;;21.43;23.20
26823;BME280;14852;51.910;8.878;2023-04-06T08:04:43;99856.16;;;21.72;23.32
26823;BME280;14852;51.910;8.878;2023-04-06T08:07:09;99849.78;;;21.47;22.98
26823;BME280;14852;51.910;8.878;2023-04-06T08:09:35;99855.34;;;21.71;22.99
26823;BME280;14852;51.910;8.878;2023-04-06T08:12:01;99851.69;;;22.35;22.71
26823;BME280;14852;51.910;8.878;2023-04-06T08:14:27;99854.84;;;22.38;22.58
26823;BME280;14852;51.910;8.878;2023-04-06T08:16:52;99853.91;;;22.65;22.36
26823;BME280;14852;51.910;8.878;2023-04-06T08:19:18;99841.16;;;23.21;21.58
26823;BME280;14852;51.910;8.878;2023-04-06T08:21:45;99840.88;;;23.32;21.58
26823;BME280;14852;51.910;8.878;2023-04-06T08:24:12;99833.44;;;23.35;21.82
26823;BME280;14852;51.910;8.878;2023-04-06T08:26:37;99833.91;;;23.31;21.64
26823;BME280;14852;51.910;8.878;2023-04-06T08:29:03;99828.56;;;23.15;21.50
26823;BME280;14852;51.910;8.878;2023-04-06T08:31:30;99838.13;;;23.07;21.86
26823;BME280;14852;51.910;8.878;2023-04-06T08:33:56;99837.91;;;22.75;21.57
26823;BME280;14852;51.910;8.878;2023-04-06T08:36:22;99839.13;;;22.37;22.25
26823;BME280;14852;51.910;8.878;2023-04-06T08:38:49;99830.63;;;22.51;22.05
26823;BME280;14852;51.910;8.878;2023-04-06T08:41:15;99820.25;;;22.58;21.66
26823;BME280;14852;51.910;8.878;2023-04-06T08:43:49;99832.75;;;22.48;21.75
26823;BME280;14852;51.910;8.878;2023-04-06T08:46:17;99829.09;;;22.05;21.95
26823;BME280;14852;51.910;8.878;2023-04-06T08:48:43;99829.81;;;21.97;22.43
26823;BME280;14852;51.910;8.878;2023-04-06T08:51:09;99831.38;;;22.00;22.13
26823;BME280;14852;51.910;8.878;2023-04-06T08:53:36;99822.97;;;22.22;22.47
26823;BME280;14852;51.910;8.878;2023-04-06T08:56:03;99822.56;;;22.35;21.97
26823;BME280;14852;51.910;8.878;2023-04-06T08:58:35;99813.56;;;21.92;22.54
26823;BME280;14852;51.910;8.878;2023-04-06T09:01:07;99813.03;;;21.89;22.50
26823;BME280;14852;51.910;8.878;2023-04-06T09:03:39;99818.94;;;21.83;22.69
26823;BME280;14852;51.910;8.878;2023-04-06T09:06:06;99816.09;;;21.49;22.03
26823;BME280;14852;51.910;8.878;2023-04-06T09:08:38;99808.03;;;20.86;22.49
26823;BME280;14852;51.910;8.878;2023-04-06T09:11:04;99820.75;;;20.34;23.15
26823;BME280;14852;51.910;8.878;2023-04-06T09:13:31;99818.56;;;19.91;24.04
26823;BME280;14852;51.910;8.878;2023-04-06T09:16:02;99816.78;;;19.42;24.38
26823;BME280;14852;51.910;8.878;2023-04-06T09:18:32;99813.88;;;19.05;25.39
26823;BME280;14852;51.910;8.878;2023-04-06T09:21:04;99817.16;;;18.88;25.37
26823;BME280;14852;51.910;8.878;2023-04-06T09:23:30;99813.31;;;18.71;25.94
26823;BME280;14852;51.910;8.878;2023-04-06T09:26:17;99826.66;;;18.37;26.09
26823;BME280;14852;51.910;8.878;2023-04-06T09:28:45;99826.38;;;17.99;25.86
26823;BME280;14852;51.910;8.878;2023-04-06T09:31:16;99825.84;;;17.73;26.20
26823;BME280;14852;51.910;8.878;2023-04-06T09:33:45;99825.50;;;17.66;26.30
26823;BME280;14852;51.910;8.878;2023-04-06T09:36:11;99815.81;;;17.67;25.92
26823;BME280;14852;51.910;8.878;2023-04-06T09:38:55;99814.44;;;17.41;26.32
26823;BME280;14852;51.910;8.878;2023-04-06T09:41:26;99821.13;;;17.33;25.87
26823;BME280;14852;51.910;8.878;2023-04-06T09:44:09;99819.25;;;17.13;26.07
26823;BME280;14852;51.910;8.878;2023-04-06T09:46:44;99813.75;;;17.16;26.70
26823;BME280;14852;51.910;8.878;2023-04-06T09:49:11;99820.69;;;17.06;26.66
26823;BME280;14852;51.910;8.878;2023-04-06T09:51:46;99808.84;;;17.00;26.45
26823;BME280;14852;51.910;8.878;2023-04-06T09:54:18;99810.88;;;17.08;26.46
26823;BME280;14852;51.910;8.878;2023-04-06T10:02:32;99814.88;;;17.68;25.84
26823;BME280;14852;51.910;8.878;2023-04-06T10:05:05;99814.75;;;17.58;25.53
26823;BME280;14852;51.910;8.878;2023-04-06T10:07:34;99819.09;;;17.37;25.59
26823;BME280;14852;51.910;8.878;2023-04-06T10:10:02;99813.03;;;17.25;25.73
26823;BME280;14852;51.910;8.878;2023-04-06T10:12:28;99810.03;;;17.41;26.16
26823;BME280;14852;51.910;8.878;2023-04-06T10:14:54;99815.13;;;17.43;26.57
26823;BME280;14852;51.910;8.878;2023-04-06T10:17:21;99813.34;;;17.32;25.91
26823;BME280;14852;51.910;8.878;2023-04-06T10:20:14;99819.97;;;17.15;25.87
26823;BME280;14852;51.910;8.878;2023-04-06T10:23:12;99819.25;;;17.02;25.74
26823;BME280;14852;51.910;8.878;2023-04-06T10:25:59;99815.78;;;16.79;25.83
26823;BME280;14852;51.910;8.878;2023-04-06T10:28:30;99802.53;;;16.81;26.21
26823;BME280;14852;51.910;8.878;2023-04-06T10:30:58;99807.06;;;16.90;26.34
26823;BME280;14852;51.910;8.878;2023-04-06T10:33:24;99807.69;;;16.93;26.33
26823;BME280;14852;51.910;8.878;2023-04-06T10:35:50;99807.41;;;16.96;26.46
26823;BME280;14852;51.910;8.878;2023-04-06T10:38:16;99809.47;;;17.04;26.38
26823;BME280;14852;51.910;8.878;2023-04-06T10:40:46;99802.88;;;17.10;26.15
26823;BME280;14852;51.910;8.878;2023-04-06T10:43:22;99805.88;;;17.05;26.59
26823;BME280;14852;51.910;8.878;2023-04-06T10:45:59;99804.22;;;17.15;26.34
26823;BME280;14852;51.910;8.878;2023-04-06T10:48:43;99798.59;;;17.09;26.34
26823;BME280;14852;51.910;8.878;2023-04-06T10:51:17;99800.38;;;16.97;26.47
26823;BME280;14852;51.910;8.878;2023-04-06T10:53:47;99792.75;;;17.16;26.82
26823;BME280;14852;51.910;8.878;2023-04-06T10:56:16;99794.53;;;17.27;26.36
26823;BME280;14852;51.910;8.878;2023-04-06T10:58:47;99805.09;;;17.48;26.06
26823;BME280;14852;51.910;8.878;2023-04-06T11:01:21;99797.69;;;17.53;26.03
26823;BME280;14852;51.910;8.878;2023-04-06T11:03:51;99793.88;;;17.46;26.00
26823;BME280;14852;51.910;8.878;2023-04-06T11:06:23;99784.06;;;17.70;26.12
26823;BME280;14852;51.910;8.878;2023-04-06T11:08:49;99773.84;;;17.88;26.23
26823;BME280;14852;51.910;8.878;2023-04-06T11:11:18;99784.56;;;17.96;26.13
26823;BME280;14852;51.910;8.878;2023-04-06T11:13:54;99777.69;;;18.04;26.02
26823;BME280;14852;51.910;8.878;2023-04-06T11:16:29;99770.22;;;18.21;26.09
26823;BME280;14852;51.910;8.878;2023-04-06T11:21:37;99773.13;;;18.48;26.04
26823;BME280;14852;51.910;8.878;2023-04-06T11:24:17;99768.44;;;18.52;25.60
26823;BME280;14852;51.910;8.878;2023-04-06T11:26:55;99762.69;;;18.58;25.73
26823;BME280;14852;51.910;8.878;2023-04-06T11:29:29;99771.22;;;18.50;25.10
26823;BME280;14852;51.910;8.878;2023-04-06T11:32:04;99761.50;;;18.20;24.36
26823;BME280;14852;51.910;8.878;2023-04-06T11:34:37;99756.00;;;18.12;24.70
26823;BME280;14852;51.910;8.878;2023-04-06T11:37:08;99765.56;;;18.13;24.74
26823;BME280;14852;51.910;8.878;2023-04-06T11:39:49;99748.78;;;18.04;24.42
26823;BME280;14852;51.910;8.878;2023-04-06T11:42:27;99753.19;;;18.04;25.00
26823;BME280;14852;51.910;8.878;2023-04-06T11:44:58;99754.47;;;17.89;24.38
26823;BME280;14852;51.910;8.878;2023-04-06T11:47:36;99756.31;;;17.77;24.72
26823;BME280;14852;51.910;8.878;2023-04-06T11:50:13;99751.38;;;17.63;24.74
26823;BME280;14852;51.910;8.878;2023-04-06T11:52:41;99746.66;;;17.66;25.20
26823;BME280;14852;51.910;8.878;2023-04-06T11:55:25;99750.41;;;17.64;25.51
26823;BME280;14852;51.910;8.878;2023-04-06T11:57:51;99751.44;;;17.72;25.53
26823;BME280;14852;51.910;8.878;2023-04-06T12:00:17;99745.88;;;17.87;25.38
26823;BME280;14852;51.910;8.878;2023-04-06T12:02:48;99748.19;;;18.01;24.93
26823;BME280;14852;51.910;8.878;2023-04-06T12:05:14;99748.84;;;18.14;25.08
26823;BME280;14852;51.910;8.878;2023-04-06T12:07:40;99742.50;;;18.17;25.06
26823;BME280;14852;51.910;8.878;2023-04-06T12:10:06;99737.75;;;18.31;25.13
26823;BME280;14852;51.910;8.878;2023-04-06T12:12:32;99737.78;;;18.41;24.71
26823;BME280;14852;51.910;8.878;2023-04-06T12:14:58;99731.31;;;18.24;24.49
26823;BME280;14852;51.910;8.878;2023-04-06T12:17:24;99746.47;;;18.11;24.94
26823;BME280;14852;51.910;8.878;2023-04-06T12:19:50;99742.75;;;18.14;24.75
26823;BME280;14852;51.910;8.878;2023-04-06T12:22:17;99736.03;;;18.21;24.96
26823;BME280;14852;51.910;8.878;2023-04-06T12:24:43;99739.09;;;18.26;25.02
26823;BME280;14852;51.910;8.878;2023-04-06T12:27:09;99740.38;;;18.31;24.64
26823;BME280;14852;51.910;8.878;2023-04-06T12:29:39;99732.06;;;18.36;24.44
26823;BME280;14852;51.910;8.878;2023-04-06T12:32:05;99736.56;;;18.24;24.90
26823;BME280;14852;51.910;8.878;2023-04-06T12:34:31;99735.13;;;18.31;25.27
26823;BME280;14852;51.910;8.878;2023-04-06T12:36:57;99733.56;;;18.29;24.51
26823;BME280;14852;51.910;8.878;2023-04-06T12:39:23;99728.13;;;18.21;24.42
26823;BME280;14852;51.910;8.878;2023-04-06T12:41:49;99720.63;;;18.16;24.67
26823;BME280;14852;51.910;8.878;2023-04-06T12:44:15;99722.53;;;18.14;25.16
26823;BME280;14852;51.910;8.878;2023-04-06T12:46:41;99721.06;;;18.00;24.45
26823;BME280;14852;51.910;8.878;2023-04-06T12:49:08;99718.97;;;17.94;24.59
26823;BME280;14852;51.910;8.878;2023-04-06T12:51:34;99704.38;;;17.90;24.82
26823;BME280;14852;51.910;8.878;2023-04-06T12:54:00;99716.13;;;17.86;24.82
26823;BME280;14852;51.910;8.878;2023-04-06T12:56:26;99698.13;;;17.82;24.66
26823;BME280;14852;51.910;8.878;2023-04-06T12:58:52;99700.69;;;17.93;24.65
26823;BME280;14852;51.910;8.878;2023-04-06T13:01:18;99696.31;;;18.03;25.12
26823;BME280;14852;51.910;8.878;2023-04-06T13:03:44;99700.50;;;18.05;24.91
26823;BME280;14852;51.910;8.878;2023-04-06T13:06:10;99701.63;;;17.92;24.36
26823;BME280;14852;51.910;8.878;2023-04-06T13:08:38;99697.75;;;17.86;24.24
26823;BME280;14852;51.910;8.878;2023-04-06T13:11:05;99696.78;;;17.87;24.28
26823;BME280;14852;51.910;8.878;2023-04-06T13:13:31;99685.03;;;17.91;24.17
26823;BME280;14852;51.910;8.878;2023-04-06T13:16:09;99684.25;;;18.00;24.38
26823;BME280;14852;51.910;8.878;2023-04-06T13:18:35;99692.72;;;18.04;24.22
26823;BME280;14852;51.910;8.878;2023-04-06T13:21:04;99682.09;;;18.05;24.21
26823;BME280;14852;51.910;8.878;2023-04-06T13:23:31;99683.63;;;18.08;24.76